sensor_id;sensor_type;location;lat;lon;timestamp;P1;durP1;ratioP1;P2;durP2;ratioP2
62925;SDS011;55732;52.248;-0.844;2022-07-23T00:01:29;5.50;;;1.90;;
62925;SDS011;55732;52.248;-0.844;2022-07-23T00:03:55;4.50;;;2.00;;
62925;SDS011;55732;52.248;-0.844;2022-07-23T00:06:21;6.60;;;2.10;;
62925;SDS011;55732;52.248;-0.844;2022-07-23T00:08:48;4.50;;;2.00;;
62925;SDS011;55732;52.248;-0.844;2022-07-23T00:11:14;5.10;;;1.90;;
62925;SDS011;55732;52.248;-0.844;2022-07-23T00:13:40;3.60;;;1.70;;
62925;SDS011;55732;52.248;-0.844;2022-07-23T00:16:05;6.20;;;1.90;;
62925;SDS011;55732;52.248;-0.844;2022-07-23T00:18:31;4.10;;;2.00;;
62925;SDS011;55732;52.248;-0.844;2022-07-23T00:20:56;4.70;;;2.00;;
62925;SDS011;55732;52.248;-0.844;2022-07-23T00:23:22;5.70;;;2.10;;
62925;SDS011;55732;52.248;-0.844;2022-07-23T00:28:15;3.70;;;2.30;;
62925;SDS011;55732;52.248;-0.844;2022-07-23T00:30:40;6.00;;;2.20;;
62925;SDS011;55732;52.248;-0.844;2022-07-23T00:33:06;5.90;;;2.30;;
62925;SDS011;55732;52.248;-0.844;2022-07-23T00:35:33;4.20;;;2.10;;
62925;SDS011;55732;52.248;-0.844;2022-07-23T00:38:01;4.30;;;2.10;;
62925;SDS011;55732;52.248;-0.844;2022-07-23T00:40:28;3.00;;;2.10;;
62925;SDS011;55732;52.248;-0.844;2022-07-23T00:42:54;5.10;;;1.90;;
62925;SDS011;55732;52.248;-0.844;2022-07-23T00:45:19;5.10;;;2.20;;
62925;SDS011;55732;52.248;-0.844;2022-07-23T00:47:45;4.80;;;2.00;;
62925;SDS011;55732;52.248;-0.844;2022-07-23T00:50:11;4.40;;;1.90;;
62925;SDS011;55732;52.248;-0.844;2022-07-23T00:52:37;6.40;;;2.70;;
62925;SDS011;55732;52.248;-0.844;2022-07-23T00:55:04;5.90;;;1.90;;
62925;SDS011;55732;52.248;-0.844;2022-07-23T00:57:31;4.40;;;2.30;;
62925;SDS011;55732;52.248;-0.844;2022-07-23T00:59:57;3.20;;;2.00;;
62925;SDS011;55732;52.248;-0.844;2022-07-23T01:02:23;3.60;;;2.10;;
62925;SDS011;55732;52.248;-0.844;2022-07-23T01:04:52;3.00;;;1.90;;
62925;SDS011;55732;52.248;-0.844;2022-07-23T01:07:18;4.90;;;2.10;;
62925;SDS011;55732;52.248;-0.844;2022-07-23T01:09:44;4.10;;;2.20;;
62925;SDS011;55732;52.248;-0.844;2022-07-23T01:12:11;5.20;;;2.20;;
62925;SDS011;55732;52.248;-0.844;2022-07-23T01:14:37;5.00;;;2.50;;
62925;SDS011;55732;52.248;-0.844;2022-07-23T01:17:03;5.90;;;2.10;;
62925;SDS011;55732;52.248;-0.844;2022-07-23T01:19:28;4.10;;;2.40;;
62925;SDS011;55732;52.248;-0.844;2022-07-23T01:21:54;5.40;;;2.30;;
62925;SDS011;55732;52.248;-0.844;2022-07-23T01:24:22;9.80;;;2.50;;
62925;SDS011;55732;52.248;-0.844;2022-07-23T01:26:47;6.20;;;2.80;;
62925;SDS011;55732;52.248;-0.844;2022-07-23T01:29:14;4.80;;;2.40;;
62925;SDS011;55732;52.248;-0.844;2022-07-23T01:31:40;5.70;;;2.30;;
62925;SDS011;55732;52.248;-0.844;2022-07-23T01:34:06;6.90;;;2.40;;
62925;SDS011;55732;52.248;-0.844;2022-07-23T01:36:32;6.30;;;2.80;;
62925;SDS011;55732;52.248;-0.844;2022-07-23T01:38:58;6.10;;;2.50;;
62925;SDS011;55732;52.248;-0.844;2022-07-23T01:41:24;5.50;;;2.60;;
62925;SDS011;55732;52.248;-0.844;2022-07-23T01:43:50;4.50;;;2.60;;
62925;SDS011;55732;52.248;-0.844;2022-07-23T01:46:15;4.10;;;2.40;;
62925;SDS011;55732;52.248;-0.844;2022-07-23T01:48:41;5.00;;;2.50;;
62925;SDS011;55732;52.248;-0.844;2022-07-23T01:51:06;8.50;;;2.90;;
62925;SDS011;55732;52.248;-0.844;2022-07-23T01:53:32;7.60;;;2.90;;
62925;SDS011;55732;52.248;-0.844;2022-07-23T01:55:58;6.30;;;2.70;;
62925;SDS011;55732;52.248;-0.844;2022-07-23T01:58:24;5.90;;;2.60;;
62925;SDS011;55732;52.248;-0.844;2022-07-23T02:00:51;6.90;;;2.90;;
62925;SDS011;55732;52.248;-0.844;2022-07-23T02:03:16;9.30;;;3.30;;
62925;SDS011;55732;52.248;-0.844;2022-07-23T02:05:42;8.20;;;2.70;;
62925;SDS011;55732;52.248;-0.844;2022-07-23T02:08:07;5.10;;;2.50;;
62925;SDS011;55732;52.248;-0.844;2022-07-23T02:10:33;9.00;;;3.20;;
62925;SDS011;55732;52.248;-0.844;2022-07-23T02:12:58;6.10;;;2.80;;
62925;SDS011;55732;52.248;-0.844;2022-07-23T02:15:23;4.50;;;2.60;;
62925;SDS011;55732;52.248;-0.844;2022-07-23T02:17:49;4.60;;;3.30;;
62925;SDS011;55732;52.248;-0.844;2022-07-23T02:20:14;6.50;;;3.00;;
62925;SDS011;55732;52.248;-0.844;2022-07-23T02:22:40;6.60;;;3.00;;
62925;SDS011;55732;52.248;-0.844;2022-07-23T02:25:06;4.90;;;2.50;;
62925;SDS011;55732;52.248;-0.844;2022-07-23T02:27:33;7.30;;;3.20;;
62925;SDS011;55732;52.248;-0.844;2022-07-23T02:29:59;5.90;;;3.30;;
62925;SDS011;55732;52.248;-0.844;2022-07-23T02:32:24;5.70;;;3.20;;
62925;SDS011;55732;52.248;-0.844;2022-07-23T02:34:50;7.20;;;3.30;;
62925;SDS011;55732;52.248;-0.844;2022-07-23T02:37:16;4.10;;;2.80;;
62925;SDS011;55732;52.248;-0.844;2022-07-23T02:39:42;5.20;;;3.10;;
62925;SDS011;55732;52.248;-0.844;2022-07-23T02:42:07;3.70;;;2.80;;
62925;SDS011;55732;52.248;-0.844;2022-07-23T02:44:33;6.00;;;3.40;;
62925;SDS011;55732;52.248;-0.844;2022-07-23T02:46:58;8.20;;;3.30;;
62925;SDS011;55732;52.248;-0.844;2022-07-23T02:49:24;6.30;;;3.40;;
62925;SDS011;55732;52.248;-0.844;2022-07-23T02:51:49;9.70;;;4.10;;
62925;SDS011;55732;52.248;-0.844;2022-07-23T02:54:15;6.10;;;3.30;;
62925;SDS011;55732;52.248;-0.844;2022-07-23T02:56:41;5.30;;;2.90;;
62925;SDS011;55732;52.248;-0.844;2022-07-23T02:59:06;7.50;;;3.20;;
62925;SDS011;55732;52.248;-0.844;2022-07-23T03:01:32;7.20;;;3.30;;
62925;SDS011;55732;52.248;-0.844;2022-07-23T03:03:57;8.60;;;3.40;;
62925;SDS011;55732;52.248;-0.844;2022-07-23T03:06:23;5.30;;;2.90;;
62925;SDS011;55732;52.248;-0.844;2022-07-23T03:08:48;6.20;;;3.30;;
62925;SDS011;55732;52.248;-0.844;2022-07-23T03:11:13;6.40;;;3.00;;
62925;SDS011;55732;52.248;-0.844;2022-07-23T03:13:39;6.80;;;3.50;;
62925;SDS011;55732;52.248;-0.844;2022-07-23T03:16:06;8.10;;;3.70;;
62925;SDS011;55732;52.248;-0.844;2022-07-23T03:18:32;7.20;;;3.60;;
62925;SDS011;55732;52.248;-0.844;2022-07-23T03:20:58;8.20;;;3.20;;
62925;SDS011;55732;52.248;-0.844;2022-07-23T03:23:23;6.40;;;3.40;;
62925;SDS011;55732;52.248;-0.844;2022-07-23T03:25:49;7.40;;;3.30;;
62925;SDS011;55732;52.248;-0.844;2022-07-23T03:28:15;6.70;;;3.50;;
62925;SDS011;55732;52.248;-0.844;2022-07-23T03:30:42;5.80;;;3.50;;
62925;SDS011;55732;52.248;-0.844;2022-07-23T03:33:08;9.40;;;3.90;;
62925;SDS011;55732;52.248;-0.844;2022-07-23T03:35:34;4.90;;;3.70;;
62925;SDS011;55732;52.248;-0.844;2022-07-23T03:37:59;7.80;;;3.90;;
62925;SDS011;55732;52.248;-0.844;2022-07-23T03:40:25;5.90;;;3.30;;
62925;SDS011;55732;52.248;-0.844;2022-07-23T03:42:50;8.30;;;4.10;;
62925;SDS011;55732;52.248;-0.844;2022-07-23T03:45:15;8.30;;;4.20;;
62925;SDS011;55732;52.248;-0.844;2022-07-23T03:47:41;7.90;;;3.20;;
62925;SDS011;55732;52.248;-0.844;2022-07-23T03:50:08;5.00;;;3.50;;
62925;SDS011;55732;52.248;-0.844;2022-07-23T03:52:34;5.40;;;4.00;;
62925;SDS011;55732;52.248;-0.844;2022-07-23T03:54:59;6.00;;;3.60;;
62925;SDS011;55732;52.248;-0.844;2022-07-23T03:57:25;7.00;;;3.90;;
62925;SDS011;55732;52.248;-0.844;2022-07-23T03:59:50;5.70;;;3.50;;
62925;SDS011;55732;52.248;-0.844;2022-07-23T04:02:16;6.80;;;3.70;;
62925;SDS011;55732;52.248;-0.844;2022-07-23T04:04:41;6.70;;;4.40;;
62925;SDS011;55732;52.248;-0.844;2022-07-23T04:07:06;9.10;;;4.60;;
62925;SDS011;55732;52.248;-0.844;2022-07-23T04:09:33;6.40;;;3.60;;
62925;SDS011;55732;52.248;-0.844;2022-07-23T04:11:59;6.40;;;3.60;;
62925;SDS011;55732;52.248;-0.844;2022-07-23T04:14:24;4.40;;;3.50;;
62925;SDS011;55732;52.248;-0.844;2022-07-23T04:16:50;6.60;;;3.90;;
62925;SDS011;55732;52.248;-0.844;2022-07-23T04:19:15;7.00;;;4.00;;
62925;SDS011;55732;52.248;-0.844;2022-07-23T04:21:40;8.60;;;4.00;;
62925;SDS011;55732;52.248;-0.844;2022-07-23T04:24:06;9.80;;;3.80;;
62925;SDS011;55732;52.248;-0.844;2022-07-23T04:26:31;7.20;;;3.80;;
62925;SDS011;55732;52.248;-0.844;2022-07-23T04:28:57;9.20;;;4.20;;
62925;SDS011;55732;52.248;-0.844;2022-07-23T04:31:22;5.50;;;3.80;;
62925;SDS011;55732;52.248;-0.844;2022-07-23T04:33:48;7.00;;;3.60;;
62925;SDS011;55732;52.248;-0.844;2022-07-23T04:36:13;5.70;;;3.70;;
62925;SDS011;55732;52.248;-0.844;2022-07-23T04:38:38;5.30;;;3.60;;
62925;SDS011;55732;52.248;-0.844;2022-07-23T04:41:04;13.10;;;4.40;;
62925;SDS011;55732;52.248;-0.844;2022-07-23T04:43:30;10.60;;;4.20;;
62925;SDS011;55732;52.248;-0.844;2022-07-23T04:45:55;6.10;;;3.80;;
62925;SDS011;55732;52.248;-0.844;2022-07-23T04:48:21;5.70;;;3.60;;
62925;SDS011;55732;52.248;-0.844;2022-07-23T04:50:46;8.20;;;3.90;;
62925;SDS011;55732;52.248;-0.844;2022-07-23T04:53:12;10.30;;;4.10;;
62925;SDS011;55732;52.248;-0.844;2022-07-23T04:55:37;5.70;;;3.90;;
62925;SDS011;55732;52.248;-0.844;2022-07-23T04:58:03;8.30;;;4.00;;
62925;SDS011;55732;52.248;-0.844;2022-07-23T05:00:28;7.40;;;3.70;;
62925;SDS011;55732;52.248;-0.844;2022-07-23T05:02:53;7.00;;;3.90;;
62925;SDS011;55732;52.248;-0.844;2022-07-23T05:05:19;6.40;;;3.90;;
62925;SDS011;55732;52.248;-0.844;2022-07-23T05:07:44;7.00;;;3.80;;
62925;SDS011;55732;52.248;-0.844;2022-07-23T05:10:10;8.30;;;4.20;;
62925;SDS011;55732;52.248;-0.844;2022-07-23T05:12:35;8.90;;;4.10;;
62925;SDS011;55732;52.248;-0.844;2022-07-23T05:15:01;9.30;;;4.50;;
62925;SDS011;55732;52.248;-0.844;2022-07-23T05:17:26;6.40;;;3.80;;
62925;SDS011;55732;52.248;-0.844;2022-07-23T05:19:51;6.90;;;4.30;;
62925;SDS011;55732;52.248;-0.844;2022-07-23T05:22:17;8.70;;;4.30;;
62925;SDS011;55732;52.248;-0.844;2022-07-23T05:24:42;6.00;;;3.80;;
62925;SDS011;55732;52.248;-0.844;2022-07-23T05:27:08;7.20;;;3.90;;
62925;SDS011;55732;52.248;-0.844;2022-07-23T05:29:33;8.30;;;4.70;;
62925;SDS011;55732;52.248;-0.844;2022-07-23T05:31:59;6.80;;;4.20;;
62925;SDS011;55732;52.248;-0.844;2022-07-23T05:34:24;12.30;;;4.90;;
62925;SDS011;55732;52.248;-0.844;2022-07-23T05:36:50;8.70;;;4.50;;
62925;SDS011;55732;52.248;-0.844;2022-07-23T05:39:15;7.40;;;5.10;;
62925;SDS011;55732;52.248;-0.844;2022-07-23T05:41:40;9.00;;;5.80;;
62925;SDS011;55732;52.248;-0.844;2022-07-23T05:44:06;13.00;;;6.40;;
62925;SDS011;55732;52.248;-0.844;2022-07-23T05:46:31;11.20;;;6.40;;
62925;SDS011;55732;52.248;-0.844;2022-07-23T05:48:57;11.90;;;7.20;;
62925;SDS011;55732;52.248;-0.844;2022-07-23T05:51:23;15.80;;;7.90;;
62925;SDS011;55732;52.248;-0.844;2022-07-23T05:53:49;13.30;;;8.10;;
62925;SDS011;55732;52.248;-0.844;2022-07-23T05:56:15;17.40;;;7.50;;
62925;SDS011;55732;52.248;-0.844;2022-07-23T05:58:42;15.90;;;7.60;;
62925;SDS011;55732;52.248;-0.844;2022-07-23T06:01:08;15.40;;;6.70;;
62925;SDS011;55732;52.248;-0.844;2022-07-23T06:03:34;12.50;;;7.10;;
62925;SDS011;55732;52.248;-0.844;2022-07-23T06:05:59;17.90;;;7.20;;
62925;SDS011;55732;52.248;-0.844;2022-07-23T06:08:24;15.70;;;7.10;;
62925;SDS011;55732;52.248;-0.844;2022-07-23T06:10:50;16.90;;;8.40;;
62925;SDS011;55732;52.248;-0.844;2022-07-23T06:13:17;17.10;;;9.30;;
62925;SDS011;55732;52.248;-0.844;2022-07-23T06:15:43;17.60;;;9.70;;
62925;SDS011;55732;52.248;-0.844;2022-07-23T06:18:09;16.00;;;8.60;;
62925;SDS011;55732;52.248;-0.844;2022-07-23T06:20:34;22.80;;;10.30;;
62925;SDS011;55732;52.248;-0.844;2022-07-23T06:23:00;15.00;;;9.30;;
62925;SDS011;55732;52.248;-0.844;2022-07-23T06:25:26;17.60;;;9.90;;
62925;SDS011;55732;52.248;-0.844;2022-07-23T06:27:51;16.60;;;9.60;;
62925;SDS011;55732;52.248;-0.844;2022-07-23T06:30:17;17.80;;;10.30;;
62925;SDS011;55732;52.248;-0.844;2022-07-23T06:32:44;19.80;;;10.80;;
62925;SDS011;55732;52.248;-0.844;2022-07-23T06:35:10;17.70;;;10.40;;
62925;SDS011;55732;52.248;-0.844;2022-07-23T06:37:35;16.80;;;10.50;;
62925;SDS011;55732;52.248;-0.844;2022-07-23T06:40:01;16.20;;;10.50;;
62925;SDS011;55732;52.248;-0.844;2022-07-23T06:42:27;18.50;;;11.30;;
62925;SDS011;55732;52.248;-0.844;2022-07-23T06:44:53;23.20;;;10.60;;
62925;SDS011;55732;52.248;-0.844;2022-07-23T06:47:18;18.00;;;11.50;;
62925;SDS011;55732;52.248;-0.844;2022-07-23T06:49:44;19.70;;;11.90;;
62925;SDS011;55732;52.248;-0.844;2022-07-23T06:52:09;22.00;;;12.40;;
62925;SDS011;55732;52.248;-0.844;2022-07-23T06:54:35;21.30;;;11.90;;
62925;SDS011;55732;52.248;-0.844;2022-07-23T06:57:00;18.30;;;11.00;;
62925;SDS011;55732;52.248;-0.844;2022-07-23T06:59:26;14.80;;;10.60;;
62925;SDS011;55732;52.248;-0.844;2022-07-23T07:01:52;15.60;;;10.00;;
62925;SDS011;55732;52.248;-0.844;2022-07-23T07:04:17;15.70;;;10.50;;
62925;SDS011;55732;52.248;-0.844;2022-07-23T07:06:42;18.90;;;11.40;;
62925;SDS011;55732;52.248;-0.844;2022-07-23T07:09:08;13.40;;;9.90;;
62925;SDS011;55732;52.248;-0.844;2022-07-23T07:11:33;18.70;;;11.70;;
62925;SDS011;55732;52.248;-0.844;2022-07-23T07:13:59;23.00;;;11.80;;
62925;SDS011;55732;52.248;-0.844;2022-07-23T07:16:24;20.10;;;11.20;;
62925;SDS011;55732;52.248;-0.844;2022-07-23T07:18:49;19.90;;;11.90;;
62925;SDS011;55732;52.248;-0.844;2022-07-23T07:21:15;17.80;;;10.70;;
62925;SDS011;55732;52.248;-0.844;2022-07-23T07:23:40;16.10;;;10.20;;
62925;SDS011;55732;52.248;-0.844;2022-07-23T07:26:06;16.20;;;10.30;;
62925;SDS011;55732;52.248;-0.844;2022-07-23T07:28:31;17.60;;;9.40;;
62925;SDS011;55732;52.248;-0.844;2022-07-23T07:30:57;18.70;;;10.50;;
62925;SDS011;55732;52.248;-0.844;2022-07-23T07:33:22;18.90;;;9.80;;
62925;SDS011;55732;52.248;-0.844;2022-07-23T07:35:47;20.60;;;9.60;;
62925;SDS011;55732;52.248;-0.844;2022-07-23T07:38:13;12.60;;;7.80;;
62925;SDS011;55732;52.248;-0.844;2022-07-23T07:40:38;11.60;;;7.80;;
62925;SDS011;55732;52.248;-0.844;2022-07-23T07:43:04;14.40;;;8.40;;
62925;SDS011;55732;52.248;-0.844;2022-07-23T07:45:29;12.10;;;7.00;;
62925;SDS011;55732;52.248;-0.844;2022-07-23T07:47:55;12.30;;;7.90;;
62925;SDS011;55732;52.248;-0.844;2022-07-23T07:50:21;12.10;;;7.90;;
62925;SDS011;55732;52.248;-0.844;2022-07-23T07:52:47;12.10;;;7.30;;
62925;SDS011;55732;52.248;-0.844;2022-07-23T07:55:12;13.60;;;7.90;;
62925;SDS011;55732;52.248;-0.844;2022-07-23T07:57:38;10.80;;;7.30;;
62925;SDS011;55732;52.248;-0.844;2022-07-23T08:00:05;12.70;;;7.00;;
62925;SDS011;55732;52.248;-0.844;2022-07-23T08:02:48;10.00;;;6.90;;
62925;SDS011;55732;52.248;-0.844;2022-07-23T08:05:22;16.60;;;7.00;;
62925;SDS011;55732;52.248;-0.844;2022-07-23T08:07:52;12.80;;;6.70;;
62925;SDS011;55732;52.248;-0.844;2022-07-23T08:10:19;11.20;;;6.50;;
62925;SDS011;55732;52.248;-0.844;2022-07-23T08:12:46;13.10;;;6.60;;
62925;SDS011;55732;52.248;-0.844;2022-07-23T08:15:18;11.50;;;6.00;;
62925;SDS011;55732;52.248;-0.844;2022-07-23T08:17:45;10.20;;;5.80;;
62925;SDS011;55732;52.248;-0.844;2022-07-23T08:20:12;11.50;;;6.10;;
62925;SDS011;55732;52.248;-0.844;2022-07-23T08:25:13;8.10;;;5.10;;
62925;SDS011;55732;52.248;-0.844;2022-07-23T08:27:38;8.40;;;5.60;;
62925;SDS011;55732;52.248;-0.844;2022-07-23T08:30:04;10.50;;;5.60;;
62925;SDS011;55732;52.248;-0.844;2022-07-23T08:32:30;9.20;;;5.00;;
62925;SDS011;55732;52.248;-0.844;2022-07-23T08:34:55;9.00;;;5.30;;
62925;SDS011;55732;52.248;-0.844;2022-07-23T08:37:21;9.30;;;5.10;;
62925;SDS011;55732;52.248;-0.844;2022-07-23T08:39:46;7.10;;;5.20;;
62925;SDS011;55732;52.248;-0.844;2022-07-23T08:42:13;10.50;;;5.10;;
62925;SDS011;55732;52.248;-0.844;2022-07-23T08:44:40;8.20;;;5.00;;
62925;SDS011;55732;52.248;-0.844;2022-07-23T08:47:09;8.70;;;4.60;;
62925;SDS011;55732;52.248;-0.844;2022-07-23T08:52:02;8.20;;;4.90;;
62925;SDS011;55732;52.248;-0.844;2022-07-23T08:54:29;7.60;;;4.80;;
62925;SDS011;55732;52.248;-0.844;2022-07-23T08:56:55;8.90;;;5.00;;
62925;SDS011;55732;52.248;-0.844;2022-07-23T08:59:20;7.30;;;4.50;;
62925;SDS011;55732;52.248;-0.844;2022-07-23T09:01:46;6.40;;;4.00;;
62925;SDS011;55732;52.248;-0.844;2022-07-23T09:04:11;6.20;;;4.20;;
62925;SDS011;55732;52.248;-0.844;2022-07-23T09:06:38;7.90;;;4.70;;
62925;SDS011;55732;52.248;-0.844;2022-07-23T09:09:16;11.20;;;3.70;;
62925;SDS011;55732;52.248;-0.844;2022-07-23T09:11:46;7.60;;;3.50;;
62925;SDS011;55732;52.248;-0.844;2022-07-23T09:14:12;6.20;;;3.60;;
62925;SDS011;55732;52.248;-0.844;2022-07-23T09:16:38;8.60;;;3.50;;
62925;SDS011;55732;52.248;-0.844;2022-07-23T09:19:04;6.80;;;3.10;;
62925;SDS011;55732;52.248;-0.844;2022-07-23T09:21:36;4.10;;;2.80;;
62925;SDS011;55732;52.248;-0.844;2022-07-23T09:24:04;8.30;;;3.20;;
62925;SDS011;55732;52.248;-0.844;2022-07-23T09:29:07;3.90;;;2.50;;
62925;SDS011;55732;52.248;-0.844;2022-07-23T09:34:21;5.00;;;3.00;;
62925;SDS011;55732;52.248;-0.844;2022-07-23T09:36:47;4.60;;;2.80;;
62925;SDS011;55732;52.248;-0.844;2022-07-23T09:39:15;5.30;;;2.50;;
62925;SDS011;55732;52.248;-0.844;2022-07-23T09:41:47;4.70;;;2.60;;
62925;SDS011;55732;52.248;-0.844;2022-07-23T09:44:17;4.70;;;2.80;;
62925;SDS011;55732;52.248;-0.844;2022-07-23T09:46:45;6.10;;;2.40;;
62925;SDS011;55732;52.248;-0.844;2022-07-23T09:49:13;5.50;;;2.40;;
62925;SDS011;55732;52.248;-0.844;2022-07-23T09:51:48;5.30;;;2.70;;
62925;SDS011;55732;52.248;-0.844;2022-07-23T09:54:20;4.20;;;2.40;;
62925;SDS011;55732;52.248;-0.844;2022-07-23T09:56:49;5.90;;;2.50;;
62925;SDS011;55732;52.248;-0.844;2022-07-23T09:59:16;4.80;;;2.40;;
62925;SDS011;55732;52.248;-0.844;2022-07-23T10:01:44;4.00;;;2.20;;
62925;SDS011;55732;52.248;-0.844;2022-07-23T10:04:11;3.90;;;2.40;;
62925;SDS011;55732;52.248;-0.844;2022-07-23T10:06:37;6.40;;;2.40;;
62925;SDS011;55732;52.248;-0.844;2022-07-23T10:09:05;2.90;;;2.00;;
62925;SDS011;55732;52.248;-0.844;2022-07-23T10:11:32;3.70;;;2.10;;
62925;SDS011;55732;52.248;-0.844;2022-07-23T10:13:58;5.70;;;2.10;;
62925;SDS011;55732;52.248;-0.844;2022-07-23T10:16:26;7.00;;;2.20;;
62925;SDS011;55732;52.248;-0.844;2022-07-23T10:18:52;3.80;;;2.10;;
62925;SDS011;55732;52.248;-0.844;2022-07-23T10:38:20;3.70;;;2.50;;
62925;SDS011;55732;52.248;-0.844;2022-07-23T10:46:54;4.00;;;2.40;;
62925;SDS011;55732;52.248;-0.844;2022-07-23T10:50:18;5.20;;;2.40;;
62925;SDS011;55732;52.248;-0.844;2022-07-23T10:57:59;4.60;;;2.00;;
62925;SDS011;55732;52.248;-0.844;2022-07-23T11:00:26;3.20;;;1.90;;
62925;SDS011;55732;52.248;-0.844;2022-07-23T11:02:57;3.30;;;2.10;;
62925;SDS011;55732;52.248;-0.844;2022-07-23T11:05:30;4.00;;;1.90;;
62925;SDS011;55732;52.248;-0.844;2022-07-23T11:32:11;4.10;;;2.00;;
62925;SDS011;55732;52.248;-0.844;2022-07-23T11:34:52;4.80;;;1.70;;
62925;SDS011;55732;52.248;-0.844;2022-07-23T11:37:28;4.20;;;1.90;;
62925;SDS011;55732;52.248;-0.844;2022-07-23T11:40:09;3.70;;;2.10;;
62925;SDS011;55732;52.248;-0.844;2022-07-23T11:42:40;5.90;;;1.90;;
62925;SDS011;55732;52.248;-0.844;2022-07-23T11:45:22;3.40;;;2.00;;
62925;SDS011;55732;52.248;-0.844;2022-07-23T11:47:48;2.80;;;1.70;;
62925;SDS011;55732;52.248;-0.844;2022-07-23T11:50:14;3.50;;;1.90;;
62925;SDS011;55732;52.248;-0.844;2022-07-23T11:52:39;3.10;;;2.00;;
62925;SDS011;55732;52.248;-0.844;2022-07-23T11:55:06;3.00;;;2.00;;
62925;SDS011;55732;52.248;-0.844;2022-07-23T11:57:34;3.50;;;2.00;;
62925;SDS011;55732;52.248;-0.844;2022-07-23T12:00:04;2.30;;;1.80;;
62925;SDS011;55732;52.248;-0.844;2022-07-23T12:03:19;2.90;;;2.00;;
62925;SDS011;55732;52.248;-0.844;2022-07-23T12:05:28;3.20;;;2.00;;
62925;SDS011;55732;52.248;-0.844;2022-07-23T12:07:56;2.80;;;1.80;;
62925;SDS011;55732;52.248;-0.844;2022-07-23T12:10:29;3.60;;;1.70;;
62925;SDS011;55732;52.248;-0.844;2022-07-23T12:13:00;2.90;;;2.10;;
62925;SDS011;55732;52.248;-0.844;2022-07-23T12:15:32;2.30;;;1.90;;
62925;SDS011;55732;52.248;-0.844;2022-07-23T12:18:02;5.90;;;2.00;;
62925;SDS011;55732;52.248;-0.844;2022-07-23T12:20:30;2.20;;;1.50;;
62925;SDS011;55732;52.248;-0.844;2022-07-23T12:23:01;3.40;;;2.20;;
62925;SDS011;55732;52.248;-0.844;2022-07-23T12:25:36;3.20;;;1.70;;
62925;SDS011;55732;52.248;-0.844;2022-07-23T12:30:38;2.90;;;1.60;;
62925;SDS011;55732;52.248;-0.844;2022-07-23T12:33:05;2.50;;;1.90;;
62925;SDS011;55732;52.248;-0.844;2022-07-23T12:35:35;8.00;;;1.80;;
62925;SDS011;55732;52.248;-0.844;2022-07-23T12:38:09;3.00;;;1.60;;
62925;SDS011;55732;52.248;-0.844;2022-07-23T12:40:49;2.70;;;1.80;;
62925;SDS011;55732;52.248;-0.844;2022-07-23T12:45:48;1.70;;;1.60;;
62925;SDS011;55732;52.248;-0.844;2022-07-23T12:50:56;2.70;;;1.70;;
62925;SDS011;55732;52.248;-0.844;2022-07-23T12:54:07;2.70;;;1.90;;
62925;SDS011;55732;52.248;-0.844;2022-07-23T12:56:14;3.40;;;1.40;;
62925;SDS011;55732;52.248;-0.844;2022-07-23T12:59:13;2.40;;;1.40;;
62925;SDS011;55732;52.248;-0.844;2022-07-23T13:01:39;1.30;;;1.20;;
62925;SDS011;55732;52.248;-0.844;2022-07-23T13:04:07;3.60;;;1.50;;
62925;SDS011;55732;52.248;-0.844;2022-07-23T13:09:10;1.30;;;1.20;;
62925;SDS011;55732;52.248;-0.844;2022-07-23T13:11:41;1.80;;;1.30;;
62925;SDS011;55732;52.248;-0.844;2022-07-23T13:14:07;1.80;;;1.40;;
62925;SDS011;55732;52.248;-0.844;2022-07-23T13:16:32;1.60;;;1.50;;
62925;SDS011;55732;52.248;-0.844;2022-07-23T13:18:58;1.40;;;1.20;;
62925;SDS011;55732;52.248;-0.844;2022-07-23T13:21:25;2.00;;;1.60;;
62925;SDS011;55732;52.248;-0.844;2022-07-23T13:23:52;2.30;;;1.40;;
62925;SDS011;55732;52.248;-0.844;2022-07-23T13:26:18;1.90;;;1.50;;
62925;SDS011;55732;52.248;-0.844;2022-07-23T13:28:44;1.60;;;1.50;;
62925;SDS011;55732;52.248;-0.844;2022-07-23T13:31:10;1.60;;;1.30;;
62925;SDS011;55732;52.248;-0.844;2022-07-23T13:33:35;1.90;;;1.50;;
62925;SDS011;55732;52.248;-0.844;2022-07-23T13:36:02;2.40;;;1.40;;
62925;SDS011;55732;52.248;-0.844;2022-07-23T13:38:28;1.40;;;1.30;;
62925;SDS011;55732;52.248;-0.844;2022-07-23T13:40:54;2.10;;;1.40;;
62925;SDS011;55732;52.248;-0.844;2022-07-23T13:43:21;2.30;;;1.60;;
62925;SDS011;55732;52.248;-0.844;2022-07-23T13:45:49;1.20;;;1.10;;
62925;SDS011;55732;52.248;-0.844;2022-07-23T13:48:15;2.80;;;1.60;;
62925;SDS011;55732;52.248;-0.844;2022-07-23T13:50:41;1.50;;;1.30;;
62925;SDS011;55732;52.248;-0.844;2022-07-23T13:53:10;2.40;;;1.50;;
62925;SDS011;55732;52.248;-0.844;2022-07-23T13:55:37;2.40;;;1.50;;
62925;SDS011;55732;52.248;-0.844;2022-07-23T13:58:04;4.00;;;1.30;;
62925;SDS011;55732;52.248;-0.844;2022-07-23T14:00:30;1.80;;;1.50;;
62925;SDS011;55732;52.248;-0.844;2022-07-23T14:02:57;1.20;;;1.10;;
62925;SDS011;55732;52.248;-0.844;2022-07-23T14:05:23;4.40;;;1.50;;
62925;SDS011;55732;52.248;-0.844;2022-07-23T14:07:49;2.40;;;1.30;;
62925;SDS011;55732;52.248;-0.844;2022-07-23T14:10:16;1.40;;;1.30;;
62925;SDS011;55732;52.248;-0.844;2022-07-23T14:12:44;2.80;;;1.20;;
62925;SDS011;55732;52.248;-0.844;2022-07-23T14:15:10;1.50;;;1.40;;
62925;SDS011;55732;52.248;-0.844;2022-07-23T14:17:37;1.30;;;1.20;;
62925;SDS011;55732;52.248;-0.844;2022-07-23T14:20:04;3.70;;;1.20;;
62925;SDS011;55732;52.248;-0.844;2022-07-23T14:24:56;1.80;;;1.30;;
62925;SDS011;55732;52.248;-0.844;2022-07-23T14:27:23;1.00;;;1.00;;
62925;SDS011;55732;52.248;-0.844;2022-07-23T14:29:49;1.50;;;1.10;;
62925;SDS011;55732;52.248;-0.844;2022-07-23T14:32:15;2.90;;;1.20;;
62925;SDS011;55732;52.248;-0.844;2022-07-23T14:34:41;3.20;;;1.10;;
62925;SDS011;55732;52.248;-0.844;2022-07-23T14:37:06;1.10;;;1.10;;
62925;SDS011;55732;52.248;-0.844;2022-07-23T14:39:32;1.00;;;1.00;;
62925;SDS011;55732;52.248;-0.844;2022-07-23T14:41:57;1.00;;;0.90;;
62925;SDS011;55732;52.248;-0.844;2022-07-23T14:44:23;1.30;;;1.20;;
62925;SDS011;55732;52.248;-0.844;2022-07-23T14:46:48;1.60;;;1.50;;
62925;SDS011;55732;52.248;-0.844;2022-07-23T14:49:14;1.00;;;1.00;;
62925;SDS011;55732;52.248;-0.844;2022-07-23T14:51:40;2.50;;;1.20;;
62925;SDS011;55732;52.248;-0.844;2022-07-23T14:54:07;0.90;;;0.90;;
62925;SDS011;55732;52.248;-0.844;2022-07-23T14:56:33;1.00;;;1.00;;
62925;SDS011;55732;52.248;-0.844;2022-07-23T14:58:58;1.50;;;1.40;;
62925;SDS011;55732;52.248;-0.844;2022-07-23T15:01:24;1.30;;;1.10;;
62925;SDS011;55732;52.248;-0.844;2022-07-23T15:03:50;1.50;;;1.40;;
62925;SDS011;55732;52.248;-0.844;2022-07-23T15:06:16;2.20;;;1.30;;
62925;SDS011;55732;52.248;-0.844;2022-07-23T15:11:08;1.60;;;1.50;;
62925;SDS011;55732;52.248;-0.844;2022-07-23T15:13:37;3.50;;;1.50;;
62925;SDS011;55732;52.248;-0.844;2022-07-23T15:16:03;1.50;;;1.40;;
62925;SDS011;55732;52.248;-0.844;2022-07-23T15:18:29;1.50;;;1.40;;
62925;SDS011;55732;52.248;-0.844;2022-07-23T15:20:55;1.50;;;1.40;;
62925;SDS011;55732;52.248;-0.844;2022-07-23T15:23:21;3.30;;;1.50;;
62925;SDS011;55732;52.248;-0.844;2022-07-23T15:25:46;1.70;;;1.60;;
62925;SDS011;55732;52.248;-0.844;2022-07-23T15:28:12;5.00;;;1.60;;
62925;SDS011;55732;52.248;-0.844;2022-07-23T15:30:38;2.00;;;1.40;;
62925;SDS011;55732;52.248;-0.844;2022-07-23T15:33:04;1.80;;;1.50;;
62925;SDS011;55732;52.248;-0.844;2022-07-23T15:35:30;2.00;;;1.30;;
62925;SDS011;55732;52.248;-0.844;2022-07-23T15:37:56;3.00;;;1.20;;
62925;SDS011;55732;52.248;-0.844;2022-07-23T15:40:22;1.60;;;1.30;;
62925;SDS011;55732;52.248;-0.844;2022-07-23T15:42:47;1.50;;;1.40;;
62925;SDS011;55732;52.248;-0.844;2022-07-23T15:45:13;1.70;;;1.60;;
62925;SDS011;55732;52.248;-0.844;2022-07-23T15:47:38;2.80;;;1.40;;
62925;SDS011;55732;52.248;-0.844;2022-07-23T15:50:06;1.90;;;1.40;;